Time;durP1;ratioP1;P1;durP2;ratioP2;P2;SDS_P1;SDS_P2;PMS_P1;PMS_P2;Temp;Humidity;BMP_temperature;BMP_pressure;BME280_temperature;BME280_humidity;BME280_pressure;Samples;Min_cycle;Max_cycle;Signal;HPM_P1;HPM_P2
2022/10/13 00:00:49;;;;;;;28.40;10.55;;;9.00;99.90;;;;;;5029616;28;20032;-57
2022/10/13 00:03:16;;;;;;;27.70;11.32;;;9.00;99.90;;;;;;5032793;28;20379;-53
2022/10/13 00:05:47;;;;;;;24.65;10.63;;;9.00;99.90;;;;;;5023123;28;20102;-51
2022/10/13 00:08:15;;;;;;;22.58;10.20;;;8.90;99.90;;;;;;5032252;28;20024;-50
2022/10/13 00:10:41;;;;;;;24.70;10.98;;;8.90;99.90;;;;;;5032413;28;20018;-51
2022/10/13 00:13:07;;;;;;;26.23;10.93;;;8.90;99.90;;;;;;5028158;28;20028;-51
2022/10/13 00:15:41;;;;;;;26.05;10.52;;;8.90;99.90;;;;;;5027248;28;20029;-52
2022/10/13 00:18:07;;;;;;;22.27;10.40;;;8.90;99.90;;;;;;5030419;28;20104;-52
2022/10/13 00:20:33;;;;;;;24.48;11.15;;;8.90;99.90;;;;;;5029376;28;20033;-54
2022/10/13 00:22:59;;;;;;;25.88;11.38;;;9.00;99.90;;;;;;5032643;28;20425;-52
2022/10/13 00:25:25;;;;;;;26.65;11.60;;;9.00;99.90;;;;;;5024015;28;20029;-53
2022/10/13 00:27:50;;;;;;;26.15;10.43;;;9.00;99.90;;;;;;5031562;28;20021;-55
2022/10/13 00:30:16;;;;;;;24.58;10.45;;;9.00;99.90;;;;;;5023939;28;20052;-50
2022/10/13 00:32:41;;;;;;;17.67;10.52;;;9.00;99.90;;;;;;5030570;28;20037;-53
2022/10/13 00:35:07;;;;;;;27.13;10.98;;;9.00;99.90;;;;;;5031284;28;20513;-54
2022/10/13 00:37:32;;;;;;;29.05;10.48;;;9.10;99.90;;;;;;5031481;28;20471;-52
2022/10/13 00:39:58;;;;;;;23.02;10.77;;;9.10;99.90;;;;;;5031411;28;20021;-52
2022/10/13 00:42:25;;;;;;;29.35;11.10;;;9.10;99.90;;;;;;5032540;28;20025;-52
2022/10/13 00:45:02;;;;;;;23.30;10.10;;;9.10;99.90;;;;;;5031577;28;20040;-53
2022/10/13 00:47:40;;;;;;;29.95;12.70;;;9.10;99.90;;;;;;5031158;28;20021;-54
2022/10/13 00:50:15;;;;;;;19.73;10.57;;;9.20;99.90;;;;;;5029760;28;20047;-54
2022/10/13 00:52:41;;;;;;;26.48;10.70;;;9.20;99.90;;;;;;5035010;28;20374;-53
2022/10/13 00:55:08;;;;;;;30.58;12.00;;;9.30;99.90;;;;;;5031806;28;20021;-52
2022/10/13 00:57:37;;;;;;;27.27;11.75;;;9.20;99.90;;;;;;5032280;28;20072;-54
2022/10/13 01:00:03;;;;;;;24.98;11.93;;;9.30;99.90;;;;;;5030850;28;20108;-56
2022/10/13 01:02:33;;;;;;;33.90;10.50;;;9.30;99.90;;;;;;5029207;28;20032;-50
2022/10/13 01:04:59;;;;;;;24.98;11.93;;;9.40;99.90;;;;;;5032144;28;20391;-52
2022/10/13 01:07:26;;;;;;;24.77;12.10;;;9.30;99.90;;;;;;5031598;28;20040;-52
2022/10/13 01:09:51;;;;;;;29.50;12.82;;;9.30;99.90;;;;;;5039036;28;20021;-51
2022/10/13 01:12:41;;;;;;;38.00;13.60;;;9.30;99.90;;;;;;5030138;28;20399;-53
2022/10/13 01:15:10;;;;;;;34.97;12.85;;;9.40;99.90;;;;;;5028522;28;20025;-51
2022/10/13 01:17:50;;;;;;;24.73;13.10;;;9.40;99.90;;;;;;5024169;28;20065;-51
2022/10/13 01:20:33;;;;;;;27.45;12.05;;;9.40;99.90;;;;;;5033700;28;20047;-55
2022/10/13 01:23:17;;;;;;;35.67;12.13;;;9.40;99.90;;;;;;5029793;28;20516;-51
2022/10/13 01:26:12;;;;;;;31.95;12.23;;;9.30;99.90;;;;;;5027264;28;20026;-53
2022/10/13 01:29:15;;;;;;;22.20;10.82;;;9.30;99.90;;;;;;5027140;28;20498;-52
2022/10/13 01:31:59;;;;;;;25.70;11.15;;;9.30;99.90;;;;;;5030743;28;20025;-51
2022/10/13 01:34:30;;;;;;;21.30;11.50;;;9.30;99.90;;;;;;5028557;28;20017;-56
2022/10/13 01:37:01;;;;;;;33.40;11.85;;;9.30;99.90;;;;;;5024157;28;20099;-52
2022/10/13 01:39:41;;;;;;;30.60;11.70;;;9.20;99.90;;;;;;5030551;28;20447;-52
2022/10/13 01:42:21;;;;;;;25.73;11.85;;;9.20;99.90;;;;;;5028491;28;20021;-51
2022/10/13 01:44:55;;;;;;;26.77;12.65;;;9.20;99.90;;;;;;5030390;28;20026;-52
2022/10/13 01:47:21;;;;;;;35.80;12.98;;;9.30;99.90;;;;;;5028090;28;20030;-50
2022/10/13 01:49:49;;;;;;;24.10;11.00;;;9.30;99.90;;;;;;5030349;28;20100;-55
2022/10/13 01:52:17;;;;;;;24.65;11.48;;;9.30;99.90;;;;;;5029786;28;20026;-54
2022/10/13 01:54:49;;;;;;;23.75;11.65;;;9.40;99.90;;;;;;5026740;28;20013;-51
2022/10/13 01:57:32;;;;;;;26.42;12.60;;;9.40;99.90;;;;;;5021194;28;20145;-51
2022/10/13 02:00:00;;;;;;;24.40;11.25;;;9.50;99.90;;;;;;5032534;28;20028;-55
2022/10/13 02:02:46;;;;;;;28.83;11.93;;;9.40;99.90;;;;;;5031275;28;20037;-54
2022/10/13 02:05:36;;;;;;;26.90;11.65;;;9.40;99.90;;;;;;5011266;28;20039;-54
2022/10/13 02:08:14;;;;;;;24.02;11.07;;;9.40;99.90;;;;;;5029198;28;20045;-52
2022/10/13 02:10:47;;;;;;;26.13;12.75;;;9.40;99.90;;;;;;5031172;28;20022;-54
2022/10/13 02:13:18;;;;;;;24.95;12.02;;;9.40;99.90;;;;;;5036881;28;20104;-55
2022/10/13 02:15:46;;;;;;;23.98;11.68;;;9.40;99.90;;;;;;5034064;28;20060;-53
2022/10/13 02:18:16;;;;;;;22.38;10.80;;;9.40;99.90;;;;;;5035971;28;20036;-52
2022/10/13 02:20:43;;;;;;;28.90;12.23;;;9.40;99.90;;;;;;5039933;28;20033;-53
2022/10/13 02:23:13;;;;;;;26.40;11.65;;;9.50;99.90;;;;;;5036752;28;20100;-55
2022/10/13 02:25:40;;;;;;;29.02;13.02;;;9.50;99.90;;;;;;5038904;28;20025;-55
2022/10/13 02:28:06;;;;;;;25.23;11.68;;;9.40;99.90;;;;;;5031725;28;20029;-52
2022/10/13 02:30:33;;;;;;;34.55;13.15;;;9.30;99.90;;;;;;5034132;28;20618;-52
2022/10/13 02:33:00;;;;;;;25.73;11.23;;;9.30;99.90;;;;;;5035782;28;20024;-53
2022/10/13 02:35:25;;;;;;;26.02;13.10;;;9.30;99.90;;;;;;5034803;28;20086;-53
2022/10/13 02:37:51;;;;;;;38.55;13.35;;;9.30;99.90;;;;;;5028037;28;20100;-53
2022/10/13 02:40:17;;;;;;;33.10;14.32;;;9.30;99.90;;;;;;5039911;28;20763;-55
2022/10/13 02:42:42;;;;;;;28.92;12.63;;;9.30;99.90;;;;;;5037793;28;20022;-52
2022/10/13 02:45:09;;;;;;;31.92;12.93;;;9.40;99.90;;;;;;5028249;28;20056;-53
2022/10/13 02:47:34;;;;;;;29.58;12.60;;;9.40;99.90;;;;;;5036505;28;20112;-52
2022/10/13 02:50:00;;;;;;;26.30;12.48;;;9.40;99.90;;;;;;5029527;28;20097;-52
2022/10/13 02:52:25;;;;;;;25.77;13.02;;;9.40;99.90;;;;;;5035177;28;20476;-53
2022/10/13 02:54:51;;;;;;;27.33;12.15;;;9.40;99.90;;;;;;5037650;28;20086;-52
2022/10/13 02:57:17;;;;;;;28.27;13.52;;;9.40;99.90;;;;;;5037342;28;20037;-52
2022/10/13 02:59:43;;;;;;;29.88;12.07;;;9.40;99.90;;;;;;5035578;28;20079;-53
2022/10/13 03:02:08;;;;;;;28.25;11.25;;;9.40;99.90;;;;;;5035064;28;20048;-54
2022/10/13 03:04:34;;;;;;;27.70;11.82;;;9.30;99.90;;;;;;5035541;28;20034;-51
2022/10/13 03:07:00;;;;;;;25.58;12.45;;;9.30;99.90;;;;;;5034327;28;20029;-52
2022/10/13 03:09:26;;;;;;;20.52;11.73;;;9.30;99.90;;;;;;5034250;28;20037;-55
2022/10/13 03:11:51;;;;;;;25.95;11.90;;;9.30;99.90;;;;;;5033841;28;20029;-53
2022/10/13 03:14:17;;;;;;;25.65;11.40;;;9.30;99.90;;;;;;5034507;28;20029;-54
2022/10/13 03:16:43;;;;;;;27.20;11.98;;;9.30;99.90;;;;;;5034980;28;20033;-52
2022/10/13 03:19:08;;;;;;;34.88;13.07;;;9.30;99.90;;;;;;5033981;28;20021;-52
2022/10/13 03:21:34;;;;;;;32.33;13.38;;;9.30;99.90;;;;;;5030882;28;20059;-55
2022/10/13 03:23:59;;;;;;;38.33;13.02;;;9.30;99.90;;;;;;5031805;28;20135;-52
2022/10/13 03:26:25;;;;;;;35.97;14.40;;;9.20;99.90;;;;;;5028629;28;20041;-55
2022/10/13 03:28:51;;;;;;;32.40;11.70;;;9.20;99.90;;;;;;5027143;28;20360;-55
2022/10/13 03:31:17;;;;;;;32.92;13.43;;;9.30;99.90;;;;;;5032519;28;20021;-55
2022/10/13 03:33:44;;;;;;;37.47;13.63;;;9.30;99.90;;;;;;5035098;28;20026;-53
2022/10/13 03:36:10;;;;;;;34.53;14.18;;;9.30;99.90;;;;;;5031791;28;20017;-53
2022/10/13 03:38:36;;;;;;;31.10;14.70;;;9.30;99.90;;;;;;5026258;28;20376;-53
2022/10/13 03:41:11;;;;;;;27.20;12.93;;;9.30;99.90;;;;;;5030357;28;20506;-53
2022/10/13 03:43:37;;;;;;;;;;;9.30;99.90;;;;;;5027114;28;20502;-54
2022/10/13 03:46:04;;;;;;;23.27;13.05;;;9.20;99.90;;;;;;5027966;28;20007;-52
2022/10/13 03:48:31;;;;;;;29.52;13.63;;;9.30;99.90;;;;;;5025529;28;20553;-52
2022/10/13 03:50:56;;;;;;;36.45;13.80;;;9.30;99.90;;;;;;5026651;28;20035;-52
2022/10/13 03:53:23;;;;;;;32.40;14.10;;;9.30;99.90;;;;;;5026416;28;20052;-51
2022/10/13 03:55:50;;;;;;;32.78;14.18;;;9.30;99.90;;;;;;5026225;28;20030;-53
2022/10/13 03:58:16;;;;;;;36.85;15.00;;;9.30;99.90;;;;;;5023861;28;20549;-54
2022/10/13 04:00:42;;;;;;;34.53;14.10;;;9.30;99.90;;;;;;5026552;28;20052;-56
2022/10/13 04:03:07;;;;;;;45.05;15.40;;;9.30;99.90;;;;;;5026146;28;20029;-52
2022/10/13 04:05:33;;;;;;;28.75;14.02;;;9.30;99.90;;;;;;5023372;28;20022;-55
2022/10/13 04:07:59;;;;;;;36.78;15.65;;;9.30;99.90;;;;;;5026123;28;20936;-53
2022/10/13 04:10:24;;;;;;;36.53;14.75;;;9.30;99.90;;;;;;5009210;28;20036;-55
2022/10/13 04:12:50;;;;;;;28.90;15.80;;;9.30;99.90;;;;;;5075840;23;20047;-56
2022/10/13 04:15:16;;;;;;;40.22;15.32;;;9.30;99.90;;;;;;5062773;28;20096;-53
2022/10/13 04:17:41;;;;;;;32.97;14.70;;;9.30;99.90;;;;;;5060721;28;20682;-54
2022/10/13 04:20:08;;;;;;;33.90;13.57;;;9.30;99.90;;;;;;5060970;28;20084;-56
2022/10/13 04:22:33;;;;;;;38.03;16.13;;;9.40;99.90;;;;;;5062282;28;20056;-56
2022/10/13 04:24:59;;;;;;;36.20;14.48;;;9.30;99.90;;;;;;5062582;28;20499;-52
2022/10/13 04:27:25;;;;;;;35.17;15.13;;;9.40;99.90;;;;;;5062619;28;20037;-55
2022/10/13 04:29:51;;;;;;;33.85;15.60;;;9.40;99.90;;;;;;5064549;28;20017;-59
2022/10/13 04:32:17;;;;;;;30.27;15.75;;;9.40;99.90;;;;;;5059771;28;20036;-52
2022/10/13 04:34:43;;;;;;;38.47;15.55;;;9.40;99.90;;;;;;5064740;28;20028;-50
2022/10/13 04:37:08;;;;;;;38.40;16.40;;;9.50;99.90;;;;;;5049278;28;20021;-52
2022/10/13 04:39:34;;;;;;;45.08;15.88;;;9.40;99.90;;;;;;5070647;28;20043;-55
2022/10/13 04:41:59;;;;;;;33.90;15.57;;;9.40;99.90;;;;;;5065370;28;20052;-52
2022/10/13 04:44:25;;;;;;;32.45;15.30;;;9.40;99.90;;;;;;5071806;28;20028;-55
2022/10/13 04:46:50;;;;;;;45.40;16.67;;;9.40;99.90;;;;;;5068783;28;20394;-55
2022/10/13 04:49:16;;;;;;;33.55;15.13;;;9.40;99.90;;;;;;5069704;28;20043;-54
2022/10/13 04:51:42;;;;;;;35.65;15.65;;;9.50;99.90;;;;;;5071028;28;20029;-52
2022/10/13 04:54:08;;;;;;;36.60;15.88;;;9.50;99.90;;;;;;5069597;28;20070;-52
2022/10/13 04:56:34;;;;;;;28.27;14.55;;;9.50;99.90;;;;;;5065908;28;20680;-51
2022/10/13 04:58:59;;;;;;;34.28;15.43;;;9.50;99.90;;;;;;5050557;28;20024;-54
2022/10/13 05:01:25;;;;;;;47.72;15.23;;;9.60;99.90;;;;;;5066476;28;20029;-52
2022/10/13 05:03:53;;;;;;;33.53;13.77;;;9.50;99.90;;;;;;5070527;28;20024;-53
2022/10/13 05:06:21;;;;;;;31.48;15.13;;;9.60;99.90;;;;;;5067619;28;20028;-54
2022/10/13 05:08:47;;;;;;;34.63;14.45;;;9.60;99.90;;;;;;5069754;28;20016;-55
2022/10/13 05:11:13;;;;;;;34.28;13.88;;;9.60;99.90;;;;;;5065533;28;20017;-54
2022/10/13 05:13:38;;;;;;;31.52;14.52;;;9.60;99.90;;;;;;5067699;28;20024;-56
2022/10/13 05:16:09;;;;;;;33.75;13.95;;;9.60;99.90;;;;;;5067871;28;20020;-55
2022/10/13 05:18:36;;;;;;;34.92;14.90;;;9.70;99.90;;;;;;5069350;28;20115;-53
2022/10/13 05:21:11;;;;;;;34.15;14.82;;;9.60;99.90;;;;;;5062286;28;20555;-51
2022/10/13 05:23:37;;;;;;;41.03;15.90;;;9.60;99.90;;;;;;5067409;28;20508;-56
2022/10/13 05:26:05;;;;;;;38.72;14.68;;;9.70;99.90;;;;;;5066993;28;20021;-57
2022/10/13 05:28:31;;;;;;;28.02;15.45;;;9.70;99.90;;;;;;5067268;28;20028;-55
2022/10/13 05:30:56;;;;;;;29.77;14.23;;;9.70;99.90;;;;;;5066250;28;20410;-54
2022/10/13 05:33:22;;;;;;;36.80;14.00;;;9.70;99.90;;;;;;5067257;28;20428;-54
2022/10/13 05:35:47;;;;;;;34.83;14.13;;;9.70;99.90;;;;;;5074185;28;20039;-52
2022/10/13 05:38:13;;;;;;;33.45;15.70;;;9.60;99.90;;;;;;5068037;28;20029;-57
2022/10/13 05:40:38;;;;;;;31.13;13.65;;;9.60;99.90;;;;;;5066636;28;20131;-55
2022/10/13 05:43:04;;;;;;;36.97;14.98;;;9.60;99.90;;;;;;5066077;28;20103;-58
2022/10/13 05:45:31;;;;;;;43.83;14.85;;;9.60;99.90;;;;;;5065950;28;20113;-51
2022/10/13 05:47:57;;;;;;;27.95;14.68;;;9.50;99.90;;;;;;5049013;28;20025;-59
2022/10/13 05:50:23;;;;;;;31.33;15.32;;;9.50;99.90;;;;;;5066382;28;20042;-57
2022/10/13 05:52:50;;;;;;;32.47;14.77;;;9.40;99.90;;;;;;5063480;28;20029;-55
2022/10/13 05:55:17;;;;;;;38.35;14.98;;;9.50;99.90;;;;;;5054907;28;20505;-54
2022/10/13 05:57:48;;;;;;;30.40;14.38;;;9.50;99.90;;;;;;5064092;28;20119;-51
2022/10/13 06:00:16;;;;;;;36.63;14.60;;;9.60;99.90;;;;;;5064894;28;20074;-52
2022/10/13 06:02:57;;;;;;;36.80;14.80;;;9.60;99.90;;;;;;5061336;28;20035;-53
2022/10/13 06:05:25;;;;;;;30.23;14.00;;;9.60;99.90;;;;;;5066655;28;20024;-50
2022/10/13 06:07:51;;;;;;;30.33;14.85;;;9.50;99.90;;;;;;5064700;28;20039;-58
2022/10/13 06:10:17;;;;;;;36.15;14.05;;;9.60;99.90;;;;;;5067241;28;20041;-50
2022/10/13 06:12:43;;;;;;;45.85;15.52;;;9.60;99.90;;;;;;5066373;28;20116;-49
2022/10/13 06:15:09;;;;;;;30.77;14.02;;;9.60;99.90;;;;;;5065385;28;20048;-56
2022/10/13 06:17:36;;;;;;;46.42;17.13;;;9.60;99.90;;;;;;5063726;28;20082;-54
2022/10/13 06:20:04;;;;;;;40.15;16.25;;;9.60;99.90;;;;;;5068179;28;20108;-55
2022/10/13 06:22:30;;;;;;;33.28;15.32;;;9.60;99.90;;;;;;5067867;28;20033;-54
2022/10/13 06:24:56;;;;;;;37.47;14.93;;;9.60;99.90;;;;;;5071496;28;20500;-54
2022/10/13 06:27:21;;;;;;;38.95;15.00;;;9.70;99.90;;;;;;5064636;28;20029;-54
2022/10/13 06:29:47;;;;;;;34.53;15.02;;;9.80;99.90;;;;;;5065722;28;20394;-54
2022/10/13 06:32:12;;;;;;;32.38;15.88;;;9.80;99.90;;;;;;5068202;28;20037;-52
2022/10/13 06:34:38;;;;;;;34.53;15.18;;;9.90;99.90;;;;;;5060372;28;20032;-51
2022/10/13 06:37:04;;;;;;;35.75;14.10;;;9.90;99.90;;;;;;5065356;28;20037;-63
2022/10/13 06:39:29;;;;;;;32.13;14.38;;;9.90;99.90;;;;;;5065979;28;20500;-50
2022/10/13 06:41:54;;;;;;;29.17;14.93;;;9.90;99.90;;;;;;5067897;28;20704;-54
2022/10/13 06:44:20;;;;;;;35.05;15.35;;;9.90;99.90;;;;;;5064506;28;20060;-53
2022/10/13 06:46:46;;;;;;;44.67;15.43;;;9.90;99.90;;;;;;5058359;28;20039;-53
2022/10/13 06:49:11;;;;;;;32.75;15.27;;;9.90;99.90;;;;;;5064511;28;20020;-56
2022/10/13 06:51:37;;;;;;;37.92;15.02;;;9.90;99.90;;;;;;5065790;28;20048;-54
2022/10/13 06:54:02;;;;;;;38.40;15.20;;;9.90;99.90;;;;;;5062822;28;20028;-56
2022/10/13 06:56:28;;;;;;;41.60;14.88;;;10.00;99.90;;;;;;5062889;28;20078;-55
2022/10/13 06:58:54;;;;;;;40.20;16.02;;;10.00;99.90;;;;;;5065701;28;20031;-56
2022/10/13 07:01:20;;;;;;;29.52;15.05;;;10.10;99.90;;;;;;5065887;28;20036;-54
2022/10/13 07:03:49;;;;;;;30.05;13.80;;;10.20;99.90;;;;;;5063619;28;20055;-57
2022/10/13 07:06:15;;;;;;;32.08;14.90;;;10.20;99.90;;;;;;5069221;28;20024;-54
2022/10/13 07:08:40;;;;;;;36.78;15.55;;;10.30;99.90;;;;;;5068303;28;20029;-56
2022/10/13 07:11:14;;;;;;;32.25;14.60;;;10.40;99.90;;;;;;5071137;28;20024;-54
2022/10/13 07:13:41;;;;;;;32.35;14.93;;;10.40;99.90;;;;;;5069826;28;20078;-53
2022/10/13 07:16:07;;;;;;;30.05;14.23;;;10.40;99.90;;;;;;5069531;28;20390;-51
2022/10/13 07:18:33;;;;;;;37.53;15.10;;;10.50;99.90;;;;;;5069775;28;20057;-55
2022/10/13 07:20:59;;;;;;;36.92;14.45;;;10.60;99.90;;;;;;5065202;28;20046;-54
2022/10/13 07:23:25;;;;;;;38.88;16.50;;;10.70;99.90;;;;;;5065148;28;20059;-55
2022/10/13 07:25:52;;;;;;;36.10;15.90;;;10.80;99.90;;;;;;5069407;28;20025;-52
2022/10/13 07:28:18;;;;;;;33.95;16.23;;;10.90;99.90;;;;;;5065817;28;20032;-57
2022/10/13 07:30:44;;;;;;;39.88;16.35;;;11.00;99.90;;;;;;5069222;28;20043;-55
2022/10/13 07:33:09;;;;;;;27.75;14.95;;;11.10;99.90;;;;;;5067807;28;20025;-55
2022/10/13 07:35:39;;;;;;;30.65;15.77;;;11.20;99.90;;;;;;5066840;28;20032;-58
2022/10/13 07:38:06;;;;;;;27.20;14.65;;;11.30;99.90;;;;;;5067632;28;20490;-55
2022/10/13 07:40:31;;;;;;;49.03;15.75;;;11.40;99.90;;;;;;5067362;28;20152;-58
2022/10/13 07:42:57;;;;;;;31.08;15.52;;;11.60;99.90;;;;;;5065565;28;20111;-56
2022/10/13 07:45:22;;;;;;;39.53;16.42;;;11.60;99.90;;;;;;5068737;28;20040;-56
2022/10/13 07:47:48;;;;;;;33.58;14.45;;;11.70;99.90;;;;;;5069446;28;20029;-56
2022/10/13 07:50:14;;;;;;;30.83;14.85;;;11.80;99.90;;;;;;5069816;28;20064;-56
2022/10/13 07:52:39;;;;;;;35.70;15.48;;;11.90;99.90;;;;;;5067605;28;20059;-56
2022/10/13 07:55:06;;;;;;;29.35;13.75;;;11.90;99.90;;;;;;5067632;28;20024;-55
2022/10/13 07:57:31;;;;;;;32.33;13.90;;;12.00;99.90;;;;;;5070415;28;20054;-50
2022/10/13 07:59:57;;;;;;;28.88;13.68;;;12.10;99.90;;;;;;5071078;28;20036;-56
2022/10/13 08:02:22;;;;;;;27.73;13.18;;;12.20;99.90;;;;;;5069664;28;20040;-54
2022/10/13 08:04:48;;;;;;;30.23;14.15;;;12.30;99.90;;;;;;5069914;28;20046;-54
2022/10/13 08:07:15;;;;;;;30.27;13.73;;;12.40;99.90;;;;;;5067436;28;20074;-57
2022/10/13 08:09:41;;;;;;;35.15;14.95;;;12.40;99.90;;;;;;5066758;28;20448;-53
2022/10/13 08:12:07;;;;;;;37.85;16.25;;;12.50;99.90;;;;;;5069759;28;20028;-51
2022/10/13 08:14:33;;;;;;;33.10;13.20;;;12.70;99.90;;;;;;5068166;28;20402;-56
2022/10/13 08:17:00;;;;;;;38.13;12.68;;;12.70;99.90;;;;;;5060949;28;20025;-52
2022/10/13 08:19:27;;;;;;;31.05;13.48;;;12.80;99.90;;;;;;5063134;28;20025;-51
2022/10/13 08:21:53;;;;;;;34.42;13.57;;;12.90;99.90;;;;;;5072296;28;20024;-54
2022/10/13 08:24:21;;;;;;;30.65;13.73;;;13.00;99.90;;;;;;5069651;28;20035;-57
2022/10/13 08:26:48;;;;;;;33.63;13.55;;;13.10;99.90;;;;;;5067209;28;20071;-55
2022/10/13 08:29:14;;;;;;;38.42;13.07;;;13.20;99.90;;;;;;5068685;28;20549;-55
2022/10/13 08:31:42;;;;;;;28.95;12.73;;;13.40;99.90;;;;;;5070672;28;20059;-55
2022/10/13 08:34:08;;;;;;;29.20;12.00;;;13.50;99.90;;;;;;5070161;28;20028;-53
2022/10/13 08:36:34;;;;;;;31.38;14.45;;;13.60;99.90;;;;;;5064059;28;20240;-55
2022/10/13 08:38:59;;;;;;;25.83;12.65;;;13.70;99.90;;;;;;5066303;28;20491;-53
2022/10/13 08:41:31;;;;;;;34.63;12.48;;;13.70;99.90;;;;;;5068450;28;20103;-54
2022/10/13 08:44:13;;;;;;;30.75;12.60;;;13.70;99.90;;;;;;5067310;28;20509;-54
2022/10/13 08:47:08;;;;;;;25.38;11.55;;;13.70;99.90;;;;;;5060033;28;20193;-51
2022/10/13 08:49:34;;;;;;;27.58;12.80;;;13.70;99.90;;;;;;5049404;28;20525;-54
2022/10/13 08:52:03;;;;;;;29.98;11.57;;;13.70;99.90;;;;;;5045751;28;20028;-53
2022/10/13 08:54:29;;;;;;;28.02;12.63;;;13.70;99.90;;;;;;5063822;28;20033;-53
2022/10/13 08:56:54;;;;;;;25.98;12.77;;;13.70;99.90;;;;;;5065863;28;20070;-53
2022/10/13 08:59:20;;;;;;;26.00;11.20;;;13.70;99.90;;;;;;5068307;28;20060;-53
2022/10/13 09:01:48;;;;;;;28.17;11.82;;;13.70;99.90;;;;;;5065926;28;20031;-56
2022/10/13 09:04:35;;;;;;;29.13;12.10;;;13.70;99.90;;;;;;5065831;28;20032;-56
2022/10/13 09:07:15;;;;;;;27.80;11.57;;;13.70;99.90;;;;;;5061435;28;20512;-59
2022/10/13 09:09:41;;;;;;;26.70;12.02;;;13.70;99.90;;;;;;5065524;28;20490;-54
2022/10/13 09:12:10;;;;;;;34.97;13.13;;;13.70;99.90;;;;;;5050168;28;20502;-54
2022/10/13 09:14:38;;;;;;;28.83;11.48;;;13.70;99.90;;;;;;5065766;28;20113;-54
2022/10/13 09:17:18;;;;;;;27.00;12.10;;;13.80;99.90;;;;;;5064304;28;20517;-53
2022/10/13 09:20:00;;;;;;;37.55;13.38;;;13.80;99.90;;;;;;5065696;28;20036;-58
2022/10/13 09:22:36;;;;;;;24.30;11.25;;;14.00;99.90;;;;;;5067676;28;20135;-58
2022/10/13 09:25:21;;;;;;;25.73;12.52;;;14.10;99.90;;;;;;5058515;28;20623;-52
2022/10/13 09:27:49;;;;;;;29.70;12.07;;;14.20;99.90;;;;;;5065420;28;20124;-52
2022/10/13 09:30:32;;;;;;;25.15;10.70;;;14.30;99.90;;;;;;5064443;28;20043;-56
2022/10/13 09:33:13;;;;;;;21.08;11.18;;;14.30;99.90;;;;;;5067433;28;20024;-54
2022/10/13 09:35:55;;;;;;;25.75;11.45;;;14.40;99.90;;;;;;5062704;28;20016;-55
2022/10/13 09:38:24;;;;;;;25.42;11.27;;;14.40;99.90;;;;;;5067012;28;20066;-53
2022/10/13 09:41:04;;;;;;;23.17;11.43;;;14.50;99.90;;;;;;5064461;28;20108;-53
2022/10/13 09:43:33;;;;;;;21.05;11.38;;;14.60;99.90;;;;;;5070983;28;20033;-55
2022/10/13 09:45:59;;;;;;;23.55;12.05;;;14.50;99.90;;;;;;5070772;28;20060;-51
2022/10/13 09:48:28;;;;;;;34.83;12.80;;;14.70;99.90;;;;;;5066883;28;20108;-54
2022/10/13 09:50:56;;;;;;;20.20;11.23;;;14.70;99.90;;;;;;5063281;28;20032;-56
2022/10/13 09:53:36;;;;;;;26.23;12.00;;;14.70;99.90;;;;;;5065654;28;20032;-56
2022/10/13 09:56:22;;;;;;;19.92;10.98;;;14.80;99.90;;;;;;5061245;28;20560;-56
2022/10/13 09:59:06;;;;;;;33.35;13.13;;;14.90;99.90;;;;;;5071670;28;20482;-52
2022/10/13 10:01:37;;;;;;;26.35;12.23;;;14.90;99.90;;;;;;5062101;28;20035;-57
2022/10/13 10:04:08;;;;;;;27.90;10.50;;;15.00;99.90;;;;;;5067789;28;20040;-53
2022/10/13 10:06:36;;;;;;;28.33;11.30;;;15.10;99.90;;;;;;5067014;28;20029;-55
2022/10/13 10:09:16;;;;;;;27.08;11.55;;;15.20;99.90;;;;;;5068636;28;20068;-54
2022/10/13 10:11:44;;;;;;;30.10;12.90;;;15.40;99.90;;;;;;5064797;28;20025;-57
2022/10/13 10:14:21;;;;;;;29.67;11.20;;;15.70;99.90;;;;;;5049520;28;20405;-56
2022/10/13 10:17:00;;;;;;;39.72;11.27;;;15.80;99.90;;;;;;5066256;28;20028;-53
2022/10/13 10:19:40;;;;;;;24.58;10.52;;;16.00;99.90;;;;;;5061408;28;20024;-55
2022/10/13 10:22:29;;;;;;;24.73;10.43;;;16.20;99.90;;;;;;5066263;28;20112;-56
2022/10/13 10:25:24;;;;;;;26.02;11.32;;;16.30;99.90;;;;;;5066156;28;20060;-54
2022/10/13 10:28:13;;;;;;;23.35;10.02;;;16.30;99.90;;;;;;5066827;28;20031;-55
2022/10/13 10:30:55;;;;;;;27.23;10.90;;;16.40;99.90;;;;;;5063060;28;20494;-57
2022/10/13 10:33:53;;;;;;;25.73;9.68;;;16.50;99.90;;;;;;5067345;28;20028;-53
2022/10/13 10:36:24;;;;;;;24.15;11.15;;;16.70;99.90;;;;;;5014243;28;20141;-52
2022/10/13 10:39:10;;;;;;;24.00;9.27;;;16.80;99.90;;;;;;5071223;28;20027;-53
2022/10/13 10:42:04;;;;;;;24.75;10.15;;;16.80;99.90;;;;;;5070294;28;20043;-54
2022/10/13 10:44:38;;;;;;;25.98;10.05;;;17.00;99.90;;;;;;5012838;28;20060;-52
2022/10/13 10:47:21;;;;;;;21.85;10.15;;;17.20;99.90;;;;;;5068562;28;20052;-55
2022/10/13 10:49:47;;;;;;;20.77;10.40;;;17.30;99.90;;;;;;5070257;28;20028;-53
2022/10/13 10:52:23;;;;;;;21.73;10.13;;;17.30;99.90;;;;;;5071630;28;20040;-58
2022/10/13 10:54:57;;;;;;;24.50;10.10;;;17.30;99.90;;;;;;5073023;28;20021;-57
2022/10/13 10:57:34;;;;;;;20.40;9.75;;;17.20;99.90;;;;;;5053819;28;20032;-56
2022/10/13 11:00:16;;;;;;;19.40;8.10;;;17.30;99.90;;;;;;5071717;28;20052;-57
2022/10/13 11:03:14;;;;;;;31.05;9.60;;;17.30;99.90;;;;;;5067374;28;20028;-57
2022/10/13 11:06:02;;;;;;;22.25;9.82;;;17.40;99.90;;;;;;5020220;28;20033;-50
2022/10/13 11:08:36;;;;;;;26.45;9.45;;;17.50;99.90;;;;;;5068716;28;20035;-56
2022/10/13 11:11:33;;;;;;;23.05;9.15;;;17.50;99.90;;;;;;5071991;28;20025;-57
2022/10/13 11:14:00;;;;;;;28.38;10.18;;;17.40;99.90;;;;;;5060591;28;20659;-57
2022/10/13 11:16:37;;;;;;;25.73;8.77;;;17.40;99.90;;;;;;5071897;28;20051;-56
2022/10/13 11:19:07;;;;;;;17.38;7.78;;;17.50;99.90;;;;;;5072473;28;20025;-59
2022/10/13 11:21:51;;;;;;;18.33;8.23;;;17.50;99.90;;;;;;5074032;28;20035;-52
2022/10/13 11:24:37;;;;;;;20.33;9.20;;;17.50;99.90;;;;;;5073329;28;20050;-56
2022/10/13 11:27:15;;;;;;;21.30;8.25;;;17.50;99.90;;;;;;5070320;28;20090;-51
2022/10/13 11:29:43;;;;;;;13.27;6.93;;;17.50;99.90;;;;;;5072634;28;20036;-52
2022/10/13 11:32:24;;;;;;;16.80;6.38;;;17.50;99.90;;;;;;5072803;28;20025;-52
2022/10/13 11:35:04;;;;;;;25.45;6.53;;;17.40;99.90;;;;;;5071004;28;20529;-56
2022/10/13 11:37:52;;;;;;;16.95;6.90;;;17.40;99.90;;;;;;5063966;28;20059;-51
2022/10/13 11:40:45;;;;;;;18.35;6.00;;;17.40;99.90;;;;;;5073588;28;20062;-55
2022/10/13 11:43:27;;;;;;;15.15;4.93;;;17.40;99.90;;;;;;5071202;28;20048;-54
2022/10/13 11:46:23;;;;;;;21.27;5.60;;;17.30;99.90;;;;;;5072123;28;20024;-55
2022/10/13 11:49:19;;;;;;;16.27;5.45;;;17.30;99.90;;;;;;5062801;28;20039;-56
2022/10/13 11:52:20;;;;;;;12.20;5.78;;;17.30;99.90;;;;;;5070175;28;20655;-57
2022/10/13 11:54:51;;;;;;;12.23;5.85;;;17.30;99.90;;;;;;5067735;22;20077;-55
2022/10/13 11:57:26;;;;;;;15.80;5.93;;;17.30;99.90;;;;;;5018296;28;21767;-54
2022/10/13 11:59:55;;;;;;;10.65;5.20;;;17.20;99.90;;;;;;5026911;28;20041;-55
2022/10/13 12:02:26;;;;;;;11.90;5.00;;;17.20;99.90;;;;;;5023781;28;20044;-53
2022/10/13 12:05:17;;;;;;;13.10;5.50;;;17.10;99.90;;;;;;5026315;28;20031;-56
2022/10/13 12:07:46;;;;;;;13.15;4.90;;;17.10;99.90;;;;;;5027764;28;20099;-52
2022/10/13 12:10:22;;;;;;;17.13;5.18;;;17.10;99.90;;;;;;5027606;28;20024;-55
2022/10/13 12:12:48;;;;;;;20.15;6.43;;;17.10;99.90;;;;;;5027664;28;20037;-52
2022/10/13 12:15:34;;;;;;;11.13;5.63;;;17.10;99.90;;;;;;5025689;28;20025;-54
2022/10/13 12:18:00;;;;;;;13.18;5.32;;;17.10;99.90;;;;;;5028680;28;20358;-54
2022/10/13 12:20:30;;;;;;;14.35;5.45;;;17.20;99.90;;;;;;5031093;28;20029;-52
2022/10/13 12:22:56;;;;;;;11.82;4.63;;;17.20;99.90;;;;;;5027934;28;20029;-53
2022/10/13 12:25:25;;;;;;;21.45;6.63;;;17.30;99.90;;;;;;5027110;28;20033;-52
2022/10/13 12:27:53;;;;;;;12.15;5.90;;;17.30;99.90;;;;;;5029990;28;20029;-56
2022/10/13 12:30:26;;;;;;;12.98;5.70;;;17.20;99.90;;;;;;5028313;28;21532;-55
2022/10/13 12:32:55;;;;;;;15.30;5.70;;;17.20;99.90;;;;;;5025818;28;20399;-53
2022/10/13 12:35:24;;;;;;;13.25;5.22;;;17.20;99.90;;;;;;5033537;28;20376;-55
2022/10/13 12:37:50;;;;;;;11.80;5.32;;;17.10;99.90;;;;;;5026287;28;20537;-53
2022/10/13 12:40:17;;;;;;;24.35;6.10;;;17.00;99.90;;;;;;5028824;28;20044;-55
2022/10/13 12:42:44;;;;;;;19.45;7.30;;;17.00;99.90;;;;;;5029644;28;20036;-53
2022/10/13 12:45:16;;;;;;;11.63;6.30;;;17.00;99.90;;;;;;5023267;28;20407;-56
2022/10/13 12:47:47;;;;;;;13.52;7.03;;;17.00;99.90;;;;;;5024904;28;20076;-55
2022/10/13 12:50:28;;;;;;;16.02;6.15;;;16.90;99.90;;;;;;5029451;28;20013;-55